sensor_id;sensor_type;location;lat;lon;timestamp;temperature;humidity
16229;DHT22;8222;51.462;12.630;2022-10-23T00:01:23;14.20;99.90
16229;DHT22;8222;51.462;12.630;2022-10-23T00:03:52;14.20;99.90
16229;DHT22;8222;51.462;12.630;2022-10-23T00:06:21;14.10;99.90
16229;DHT22;8222;51.462;12.630;2022-10-23T00:08:47;14.10;99.90
16229;DHT22;8222;51.462;12.630;2022-10-23T00:11:18;14.20;99.90
16229;DHT22;8222;51.462;12.630;2022-10-23T00:13:44;14.20;99.90
16229;DHT22;8222;51.462;12.630;2022-10-23T00:16:10;14.10;99.90
16229;DHT22;8222;51.462;12.630;2022-10-23T00:18:37;14.10;99.90
16229;DHT22;8222;51.462;12.630;2022-10-23T00:21:04;14.10;99.90
16229;DHT22;8222;51.462;12.630;2022-10-23T00:23:30;14.10;99.90
16229;DHT22;8222;51.462;12.630;2022-10-23T00:25:56;14.10;99.90
16229;DHT22;8222;51.462;12.630;2022-10-23T00:28:23;14.10;99.90
16229;DHT22;8222;51.462;12.630;2022-10-23T00:30:49;14.00;99.90
16229;DHT22;8222;51.462;12.630;2022-10-23T00:33:14;14.10;99.90
16229;DHT22;8222;51.462;12.630;2022-10-23T00:35:41;14.10;99.90
16229;DHT22;8222;51.462;12.630;2022-10-23T00:38:08;14.10;99.90
16229;DHT22;8222;51.462;12.630;2022-10-23T00:40:35;14.10;99.90
16229;DHT22;8222;51.462;12.630;2022-10-23T00:43:03;14.20;99.90
16229;DHT22;8222;51.462;12.630;2022-10-23T00:45:32;14.20;99.90
16229;DHT22;8222;51.462;12.630;2022-10-23T00:47:59;14.20;99.90
16229;DHT22;8222;51.462;12.630;2022-10-23T00:50:28;14.20;99.90
16229;DHT22;8222;51.462;12.630;2022-10-23T00:52:55;14.20;99.90
16229;DHT22;8222;51.462;12.630;2022-10-23T00:55:24;14.10;99.90
16229;DHT22;8222;51.462;12.630;2022-10-23T00:57:50;14.10;99.90
16229;DHT22;8222;51.462;12.630;2022-10-23T01:00:21;14.10;99.90
16229;DHT22;8222;51.462;12.630;2022-10-23T01:02:47;14.20;99.90
16229;DHT22;8222;51.462;12.630;2022-10-23T01:05:15;14.10;99.90
16229;DHT22;8222;51.462;12.630;2022-10-23T01:07:49;14.20;99.90
16229;DHT22;8222;51.462;12.630;2022-10-23T01:10:22;14.20;99.90
16229;DHT22;8222;51.462;12.630;2022-10-23T01:13:11;14.20;99.90
16229;DHT22;8222;51.462;12.630;2022-10-23T01:15:52;14.20;99.90
16229;DHT22;8222;51.462;12.630;2022-10-23T01:18:23;14.30;99.90
16229;DHT22;8222;51.462;12.630;2022-10-23T01:21:10;14.30;99.90
16229;DHT22;8222;51.462;12.630;2022-10-23T01:24:06;14.20;99.90
16229;DHT22;8222;51.462;12.630;2022-10-23T01:29:37;14.30;99.90
16229;DHT22;8222;51.462;12.630;2022-10-23T01:32:10;14.30;99.90
16229;DHT22;8222;51.462;12.630;2022-10-23T01:35:19;14.30;99.90
16229;DHT22;8222;51.462;12.630;2022-10-23T01:38:23;14.30;99.90
16229;DHT22;8222;51.462;12.630;2022-10-23T01:41:17;14.40;99.90
16229;DHT22;8222;51.462;12.630;2022-10-23T01:43:53;14.40;99.90
16229;DHT22;8222;51.462;12.630;2022-10-23T01:46:21;14.40;99.90
16229;DHT22;8222;51.462;12.630;2022-10-23T01:48:52;14.80;99.90
16229;DHT22;8222;51.462;12.630;2022-10-23T01:51:20;14.20;99.90
16229;DHT22;8222;51.462;12.630;2022-10-23T01:53:48;14.40;99.90
16229;DHT22;8222;51.462;12.630;2022-10-23T01:56:19;14.30;99.90
16229;DHT22;8222;51.462;12.630;2022-10-23T01:58:48;14.30;99.90
16229;DHT22;8222;51.462;12.630;2022-10-23T02:01:19;14.30;99.90
16229;DHT22;8222;51.462;12.630;2022-10-23T02:03:47;14.30;99.90
16229;DHT22;8222;51.462;12.630;2022-10-23T02:06:13;14.20;99.90
16229;DHT22;8222;51.462;12.630;2022-10-23T02:08:39;14.20;99.90
16229;DHT22;8222;51.462;12.630;2022-10-23T02:11:16;14.20;99.90
16229;DHT22;8222;51.462;12.630;2022-10-23T02:17:32;14.20;99.90
16229;DHT22;8222;51.462;12.630;2022-10-23T02:25:36;14.20;99.90
16229;DHT22;8222;51.462;12.630;2022-10-23T02:28:06;14.30;99.90
16229;DHT22;8222;51.462;12.630;2022-10-23T02:30:34;14.30;99.90
16229;DHT22;8222;51.462;12.630;2022-10-23T02:33:02;14.20;99.90
16229;DHT22;8222;51.462;12.630;2022-10-23T02:35:31;14.20;99.90
16229;DHT22;8222;51.462;12.630;2022-10-23T02:37:59;14.10;99.90
16229;DHT22;8222;51.462;12.630;2022-10-23T02:40:43;14.00;99.90
16229;DHT22;8222;51.462;12.630;2022-10-23T02:43:20;13.90;99.90
16229;DHT22;8222;51.462;12.630;2022-10-23T02:45:56;13.90;99.90
16229;DHT22;8222;51.462;12.630;2022-10-23T02:48:33;13.80;99.90
16229;DHT22;8222;51.462;12.630;2022-10-23T02:54:07;13.80;99.90
16229;DHT22;8222;51.462;12.630;2022-10-23T02:59:25;13.70;99.90
16229;DHT22;8222;51.462;12.630;2022-10-23T03:02:20;13.70;99.90
16229;DHT22;8222;51.462;12.630;2022-10-23T03:04:48;13.60;99.90
16229;DHT22;8222;51.462;12.630;2022-10-23T03:07:14;14.00;99.90
16229;DHT22;8222;51.462;12.630;2022-10-23T03:09:42;13.60;99.90
16229;DHT22;8222;51.462;12.630;2022-10-23T03:12:07;13.50;99.90
16229;DHT22;8222;51.462;12.630;2022-10-23T03:14:33;13.50;99.90
16229;DHT22;8222;51.462;12.630;2022-10-23T03:16:59;13.50;99.90
16229;DHT22;8222;51.462;12.630;2022-10-23T03:19:24;13.50;99.90
16229;DHT22;8222;51.462;12.630;2022-10-23T03:21:50;13.50;99.90
16229;DHT22;8222;51.462;12.630;2022-10-23T03:24:15;13.40;99.90
16229;DHT22;8222;51.462;12.630;2022-10-23T03:26:41;13.40;99.90
16229;DHT22;8222;51.462;12.630;2022-10-23T03:29:07;13.40;99.90
16229;DHT22;8222;51.462;12.630;2022-10-23T03:31:32;13.50;99.90
16229;DHT22;8222;51.462;12.630;2022-10-23T03:33:58;13.80;99.90
16229;DHT22;8222;51.462;12.630;2022-10-23T03:36:24;13.30;99.90
16229;DHT22;8222;51.462;12.630;2022-10-23T03:38:50;13.20;99.90
16229;DHT22;8222;51.462;12.630;2022-10-23T03:41:17;13.20;99.90
16229;DHT22;8222;51.462;12.630;2022-10-23T03:43:43;13.30;99.90
16229;DHT22;8222;51.462;12.630;2022-10-23T03:46:09;13.30;99.90
16229;DHT22;8222;51.462;12.630;2022-10-23T03:48:37;13.20;99.90
16229;DHT22;8222;51.462;12.630;2022-10-23T03:51:06;13.20;99.90
16229;DHT22;8222;51.462;12.630;2022-10-23T03:53:32;13.20;99.90
16229;DHT22;8222;51.462;12.630;2022-10-23T03:55:58;13.10;99.90
16229;DHT22;8222;51.462;12.630;2022-10-23T03:58:23;13.20;99.90
16229;DHT22;8222;51.462;12.630;2022-10-23T04:00:49;13.10;99.90
16229;DHT22;8222;51.462;12.630;2022-10-23T04:03:14;13.10;99.90
16229;DHT22;8222;51.462;12.630;2022-10-23T04:05:41;13.20;99.90
16229;DHT22;8222;51.462;12.630;2022-10-23T04:08:07;13.10;99.90
16229;DHT22;8222;51.462;12.630;2022-10-23T04:10:32;13.10;99.90
16229;DHT22;8222;51.462;12.630;2022-10-23T04:13:00;13.10;99.90
16229;DHT22;8222;51.462;12.630;2022-10-23T04:15:26;13.10;99.90
16229;DHT22;8222;51.462;12.630;2022-10-23T04:17:51;13.10;99.90
16229;DHT22;8222;51.462;12.630;2022-10-23T04:20:17;13.10;99.90
16229;DHT22;8222;51.462;12.630;2022-10-23T04:22:43;13.10;99.90
16229;DHT22;8222;51.462;12.630;2022-10-23T04:25:08;13.10;99.90
16229;DHT22;8222;51.462;12.630;2022-10-23T04:27:34;13.10;99.90
16229;DHT22;8222;51.462;12.630;2022-10-23T04:30:00;13.10;99.90
16229;DHT22;8222;51.462;12.630;2022-10-23T04:32:28;13.10;99.90
16229;DHT22;8222;51.462;12.630;2022-10-23T04:34:54;13.10;99.90
16229;DHT22;8222;51.462;12.630;2022-10-23T04:37:19;13.10;99.90
16229;DHT22;8222;51.462;12.630;2022-10-23T04:39:45;13.00;99.90
16229;DHT22;8222;51.462;12.630;2022-10-23T04:42:13;13.00;99.90
16229;DHT22;8222;51.462;12.630;2022-10-23T04:44:38;13.00;99.90
16229;DHT22;8222;51.462;12.630;2022-10-23T04:47:04;13.00;99.90
16229;DHT22;8222;51.462;12.630;2022-10-23T04:49:31;13.00;99.90
16229;DHT22;8222;51.462;12.630;2022-10-23T04:51:57;13.80;99.90
16229;DHT22;8222;51.462;12.630;2022-10-23T04:54:22;13.00;99.90
16229;DHT22;8222;51.462;12.630;2022-10-23T04:56:50;12.90;99.90
16229;DHT22;8222;51.462;12.630;2022-10-23T04:59:16;12.90;99.90
16229;DHT22;8222;51.462;12.630;2022-10-23T05:01:41;12.90;99.90
16229;DHT22;8222;51.462;12.630;2022-10-23T05:04:07;12.80;99.90
16229;DHT22;8222;51.462;12.630;2022-10-23T05:06:33;12.80;99.90
16229;DHT22;8222;51.462;12.630;2022-10-23T05:08:59;12.80;99.90
16229;DHT22;8222;51.462;12.630;2022-10-23T05:11:27;12.80;99.90
16229;DHT22;8222;51.462;12.630;2022-10-23T05:13:52;12.80;99.90
16229;DHT22;8222;51.462;12.630;2022-10-23T05:16:34;13.00;99.90
16229;DHT22;8222;51.462;12.630;2022-10-23T05:19:01;12.80;99.90
16229;DHT22;8222;51.462;12.630;2022-10-23T05:21:29;12.80;99.90
16229;DHT22;8222;51.462;12.630;2022-10-23T05:23:56;12.70;99.90
16229;DHT22;8222;51.462;12.630;2022-10-23T05:26:22;12.60;99.90
16229;DHT22;8222;51.462;12.630;2022-10-23T05:28:48;12.60;99.90
16229;DHT22;8222;51.462;12.630;2022-10-23T05:31:14;12.60;99.90
16229;DHT22;8222;51.462;12.630;2022-10-23T05:33:40;12.70;99.90
16229;DHT22;8222;51.462;12.630;2022-10-23T05:36:08;12.70;99.90
16229;DHT22;8222;51.462;12.630;2022-10-23T05:38:34;12.80;99.90
16229;DHT22;8222;51.462;12.630;2022-10-23T05:41:00;12.80;99.90
16229;DHT22;8222;51.462;12.630;2022-10-23T05:43:26;12.90;99.90
16229;DHT22;8222;51.462;12.630;2022-10-23T05:45:55;12.90;99.90
16229;DHT22;8222;51.462;12.630;2022-10-23T05:48:21;13.00;99.90
16229;DHT22;8222;51.462;12.630;2022-10-23T05:50:47;13.00;99.90
16229;DHT22;8222;51.462;12.630;2022-10-23T05:53:13;13.00;99.90
16229;DHT22;8222;51.462;12.630;2022-10-23T05:55:38;13.00;99.90
16229;DHT22;8222;51.462;12.630;2022-10-23T05:58:04;12.90;99.90
16229;DHT22;8222;51.462;12.630;2022-10-23T06:00:30;13.00;99.90
16229;DHT22;8222;51.462;12.630;2022-10-23T06:02:59;12.90;99.90
16229;DHT22;8222;51.462;12.630;2022-10-23T06:05:24;13.00;99.90
16229;DHT22;8222;51.462;12.630;2022-10-23T06:07:50;13.00;99.90
16229;DHT22;8222;51.462;12.630;2022-10-23T06:10:16;13.10;99.90
16229;DHT22;8222;51.462;12.630;2022-10-23T06:12:42;13.10;99.90
16229;DHT22;8222;51.462;12.630;2022-10-23T06:15:07;13.80;99.90
16229;DHT22;8222;51.462;12.630;2022-10-23T06:17:33;13.10;99.90
16229;DHT22;8222;51.462;12.630;2022-10-23T06:19:59;13.10;99.90
16229;DHT22;8222;51.462;12.630;2022-10-23T06:22:28;13.20;99.90
16229;DHT22;8222;51.462;12.630;2022-10-23T06:24:54;13.20;99.90
16229;DHT22;8222;51.462;12.630;2022-10-23T06:27:20;13.20;99.90
16229;DHT22;8222;51.462;12.630;2022-10-23T06:29:47;13.30;99.90
16229;DHT22;8222;51.462;12.630;2022-10-23T06:32:13;13.30;99.90
16229;DHT22;8222;51.462;12.630;2022-10-23T06:34:39;13.40;99.90
16229;DHT22;8222;51.462;12.630;2022-10-23T06:37:05;13.50;99.90
16229;DHT22;8222;51.462;12.630;2022-10-23T06:39:30;13.60;99.90
16229;DHT22;8222;51.462;12.630;2022-10-23T06:41:56;13.60;99.90
16229;DHT22;8222;51.462;12.630;2022-10-23T06:44:22;13.70;99.90
16229;DHT22;8222;51.462;12.630;2022-10-23T06:46:47;13.70;99.90
16229;DHT22;8222;51.462;12.630;2022-10-23T06:49:16;13.70;99.90
16229;DHT22;8222;51.462;12.630;2022-10-23T06:51:41;13.80;99.90
16229;DHT22;8222;51.462;12.630;2022-10-23T06:54:09;13.80;99.90
16229;DHT22;8222;51.462;12.630;2022-10-23T06:56:36;13.90;99.90
16229;DHT22;8222;51.462;12.630;2022-10-23T06:59:02;13.90;99.90
16229;DHT22;8222;51.462;12.630;2022-10-23T07:01:28;14.00;99.90
16229;DHT22;8222;51.462;12.630;2022-10-23T07:03:53;14.10;99.90
16229;DHT22;8222;51.462;12.630;2022-10-23T07:06:20;14.50;99.90
16229;DHT22;8222;51.462;12.630;2022-10-23T07:08:46;14.30;99.90
16229;DHT22;8222;51.462;12.630;2022-10-23T07:11:12;14.40;99.90
16229;DHT22;8222;51.462;12.630;2022-10-23T07:13:39;14.60;99.90
16229;DHT22;8222;51.462;12.630;2022-10-23T07:16:21;14.60;99.90
16229;DHT22;8222;51.462;12.630;2022-10-23T07:19:00;14.60;99.90
16229;DHT22;8222;51.462;12.630;2022-10-23T07:21:34;14.80;99.90
16229;DHT22;8222;51.462;12.630;2022-10-23T07:24:00;15.10;99.90
16229;DHT22;8222;51.462;12.630;2022-10-23T07:26:27;15.20;99.90
16229;DHT22;8222;51.462;12.630;2022-10-23T07:28:52;15.20;99.90
16229;DHT22;8222;51.462;12.630;2022-10-23T07:31:21;15.30;99.90
16229;DHT22;8222;51.462;12.630;2022-10-23T07:33:48;15.50;99.90
16229;DHT22;8222;51.462;12.630;2022-10-23T07:36:23;15.60;99.90
16229;DHT22;8222;51.462;12.630;2022-10-23T07:38:50;15.80;99.90
16229;DHT22;8222;51.462;12.630;2022-10-23T07:41:16;15.80;99.90
16229;DHT22;8222;51.462;12.630;2022-10-23T07:43:41;15.90;99.90
16229;DHT22;8222;51.462;12.630;2022-10-23T07:46:07;16.00;99.90
16229;DHT22;8222;51.462;12.630;2022-10-23T07:48:37;16.20;99.90
16229;DHT22;8222;51.462;12.630;2022-10-23T07:51:10;16.20;99.90
16229;DHT22;8222;51.462;12.630;2022-10-23T07:53:36;16.30;99.90
16229;DHT22;8222;51.462;12.630;2022-10-23T07:56:09;16.40;99.90
16229;DHT22;8222;51.462;12.630;2022-10-23T07:58:38;16.40;99.90
16229;DHT22;8222;51.462;12.630;2022-10-23T08:01:22;16.50;99.90
16229;DHT22;8222;51.462;12.630;2022-10-23T08:03:49;16.50;99.90
16229;DHT22;8222;51.462;12.630;2022-10-23T08:06:17;16.40;99.90
16229;DHT22;8222;51.462;12.630;2022-10-23T08:08:43;16.40;99.90
16229;DHT22;8222;51.462;12.630;2022-10-23T08:11:11;16.40;99.90
16229;DHT22;8222;51.462;12.630;2022-10-23T08:13:37;16.50;99.90
16229;DHT22;8222;51.462;12.630;2022-10-23T08:16:04;16.50;99.90
16229;DHT22;8222;51.462;12.630;2022-10-23T08:18:30;16.50;99.90
16229;DHT22;8222;51.462;12.630;2022-10-23T08:21:00;16.70;99.90
16229;DHT22;8222;51.462;12.630;2022-10-23T08:23:27;16.80;99.90
16229;DHT22;8222;51.462;12.630;2022-10-23T08:25:57;16.80;99.90
16229;DHT22;8222;51.462;12.630;2022-10-23T08:28:25;17.00;99.90
16229;DHT22;8222;51.462;12.630;2022-10-23T08:30:51;17.10;99.90
16229;DHT22;8222;51.462;12.630;2022-10-23T08:33:16;17.20;99.90
16229;DHT22;8222;51.462;12.630;2022-10-23T08:35:42;17.30;99.90
16229;DHT22;8222;51.462;12.630;2022-10-23T08:38:09;17.40;99.90
16229;DHT22;8222;51.462;12.630;2022-10-23T08:40:35;17.50;99.90
16229;DHT22;8222;51.462;12.630;2022-10-23T08:43:15;17.50;99.90
16229;DHT22;8222;51.462;12.630;2022-10-23T08:45:52;17.60;99.90
16229;DHT22;8222;51.462;12.630;2022-10-23T08:48:32;17.50;99.90
16229;DHT22;8222;51.462;12.630;2022-10-23T08:51:10;17.60;99.90
16229;DHT22;8222;51.462;12.630;2022-10-23T08:54:16;17.60;99.90
16229;DHT22;8222;51.462;12.630;2022-10-23T08:56:48;17.60;99.90
16229;DHT22;8222;51.462;12.630;2022-10-23T08:59:27;17.70;99.90
16229;DHT22;8222;51.462;12.630;2022-10-23T09:04:46;17.80;99.90
16229;DHT22;8222;51.462;12.630;2022-10-23T09:12:42;18.30;99.90
16229;DHT22;8222;51.462;12.630;2022-10-23T09:15:28;18.40;99.90
16229;DHT22;8222;51.462;12.630;2022-10-23T09:18:11;18.60;99.90
16229;DHT22;8222;51.462;12.630;2022-10-23T09:20:39;18.60;99.90
16229;DHT22;8222;51.462;12.630;2022-10-23T09:23:20;18.80;99.90
16229;DHT22;8222;51.462;12.630;2022-10-23T09:25:49;18.90;99.90
16229;DHT22;8222;51.462;12.630;2022-10-23T09:28:31;18.90;99.90
16229;DHT22;8222;51.462;12.630;2022-10-23T09:31:07;19.00;99.90
16229;DHT22;8222;51.462;12.630;2022-10-23T09:33:33;19.10;99.90
16229;DHT22;8222;51.462;12.630;2022-10-23T09:36:07;19.00;99.90
16229;DHT22;8222;51.462;12.630;2022-10-23T09:38:48;19.20;99.90
16229;DHT22;8222;51.462;12.630;2022-10-23T09:43:44;19.80;99.90
16229;DHT22;8222;51.462;12.630;2022-10-23T09:46:09;19.90;99.90
16229;DHT22;8222;51.462;12.630;2022-10-23T09:48:38;20.00;99.90
16229;DHT22;8222;51.462;12.630;2022-10-23T09:51:18;20.20;99.90
16229;DHT22;8222;51.462;12.630;2022-10-23T09:53:55;20.40;99.90
16229;DHT22;8222;51.462;12.630;2022-10-23T09:56:39;20.20;99.90
16229;DHT22;8222;51.462;12.630;2022-10-23T10:01:45;20.40;99.90
16229;DHT22;8222;51.462;12.630;2022-10-23T10:04:11;20.60;99.90
16229;DHT22;8222;51.462;12.630;2022-10-23T10:06:37;20.70;99.90
16229;DHT22;8222;51.462;12.630;2022-10-23T10:09:09;20.70;99.90
16229;DHT22;8222;51.462;12.630;2022-10-23T10:11:45;20.80;99.90
16229;DHT22;8222;51.462;12.630;2022-10-23T10:23:13;21.20;99.90
16229;DHT22;8222;51.462;12.630;2022-10-23T10:28:56;21.20;99.90
16229;DHT22;8222;51.462;12.630;2022-10-23T10:34:37;21.30;99.90
16229;DHT22;8222;51.462;12.630;2022-10-23T10:37:17;21.20;99.90
16229;DHT22;8222;51.462;12.630;2022-10-23T10:39:54;21.20;99.90
16229;DHT22;8222;51.462;12.630;2022-10-23T10:49:06;21.10;99.90
16229;DHT22;8222;51.462;12.630;2022-10-23T10:54:51;21.30;99.90
16229;DHT22;8222;51.462;12.630;2022-10-23T10:57:30;21.30;99.90
16229;DHT22;8222;51.462;12.630;2022-10-23T11:00:00;21.40;99.90
16229;DHT22;8222;51.462;12.630;2022-10-23T11:02:37;21.60;99.90
16229;DHT22;8222;51.462;12.630;2022-10-23T11:05:14;21.70;99.90
16229;DHT22;8222;51.462;12.630;2022-10-23T11:10:18;22.10;99.90
16229;DHT22;8222;51.462;12.630;2022-10-23T11:12:45;22.10;99.90
16229;DHT22;8222;51.462;12.630;2022-10-23T11:15:13;22.20;99.90
16229;DHT22;8222;51.462;12.630;2022-10-23T11:17:44;22.40;99.90
16229;DHT22;8222;51.462;12.630;2022-10-23T11:20:47;22.40;99.90
16229;DHT22;8222;51.462;12.630;2022-10-23T11:26:30;22.40;99.90
16229;DHT22;8222;51.462;12.630;2022-10-23T11:37:04;22.80;99.90
16229;DHT22;8222;51.462;12.630;2022-10-23T11:39:33;23.00;99.90
16229;DHT22;8222;51.462;12.630;2022-10-23T11:44:48;23.20;99.90
16229;DHT22;8222;51.462;12.630;2022-10-23T11:52:31;23.30;99.90
16229;DHT22;8222;51.462;12.630;2022-10-23T11:55:02;23.60;99.90
16229;DHT22;8222;51.462;12.630;2022-10-23T11:57:30;23.80;99.90
16229;DHT22;8222;51.462;12.630;2022-10-23T11:59:56;23.90;99.90
16229;DHT22;8222;51.462;12.630;2022-10-23T12:02:34;24.10;99.90
16229;DHT22;8222;51.462;12.630;2022-10-23T12:05:09;24.00;99.90
16229;DHT22;8222;51.462;12.630;2022-10-23T12:07:54;24.00;99.90
16229;DHT22;8222;51.462;12.630;2022-10-23T12:10:30;23.90;99.90
16229;DHT22;8222;51.462;12.630;2022-10-23T12:12:58;24.00;99.90
16229;DHT22;8222;51.462;12.630;2022-10-23T12:15:24;23.90;99.90
16229;DHT22;8222;51.462;12.630;2022-10-23T12:17:52;23.60;99.90
16229;DHT22;8222;51.462;12.630;2022-10-23T12:20:37;23.30;99.90
16229;DHT22;8222;51.462;12.630;2022-10-23T12:31:07;23.00;99.90
16229;DHT22;8222;51.462;12.630;2022-10-23T12:37:01;23.10;99.90
16229;DHT22;8222;51.462;12.630;2022-10-23T12:39:33;23.20;99.90
16229;DHT22;8222;51.462;12.630;2022-10-23T12:42:10;23.30;99.90
16229;DHT22;8222;51.462;12.630;2022-10-23T12:44:39;23.30;99.90
16229;DHT22;8222;51.462;12.630;2022-10-23T12:47:10;23.30;99.90
16229;DHT22;8222;51.462;12.630;2022-10-23T12:49:38;23.30;99.90
16229;DHT22;8222;51.462;12.630;2022-10-23T12:52:18;23.30;99.90
16229;DHT22;8222;51.462;12.630;2022-10-23T12:54:44;23.40;99.90
16229;DHT22;8222;51.462;12.630;2022-10-23T12:57:27;23.30;99.90
16229;DHT22;8222;51.462;12.630;2022-10-23T12:59:56;23.40;99.90
16229;DHT22;8222;51.462;12.630;2022-10-23T13:02:28;23.40;99.90
16229;DHT22;8222;51.462;12.630;2022-10-23T13:04:57;23.40;99.90
16229;DHT22;8222;51.462;12.630;2022-10-23T13:07:29;23.50;99.90
16229;DHT22;8222;51.462;12.630;2022-10-23T13:09:57;23.20;99.90
16229;DHT22;8222;51.462;12.630;2022-10-23T13:12:30;23.20;99.90
16229;DHT22;8222;51.462;12.630;2022-10-23T13:18:00;23.30;99.90
16229;DHT22;8222;51.462;12.630;2022-10-23T13:20:28;23.30;99.90
16229;DHT22;8222;51.462;12.630;2022-10-23T13:23:08;23.40;99.90
16229;DHT22;8222;51.462;12.630;2022-10-23T13:25:36;23.40;99.90
16229;DHT22;8222;51.462;12.630;2022-10-23T13:30:40;23.20;99.90
16229;DHT22;8222;51.462;12.630;2022-10-23T13:33:23;23.10;99.90
16229;DHT22;8222;51.462;12.630;2022-10-23T13:36:00;23.00;99.90
16229;DHT22;8222;51.462;12.630;2022-10-23T13:38:46;22.80;99.90
16229;DHT22;8222;51.462;12.630;2022-10-23T13:41:17;23.00;99.90
16229;DHT22;8222;51.462;12.630;2022-10-23T13:43:44;22.90;99.90
16229;DHT22;8222;51.462;12.630;2022-10-23T13:46:15;22.80;99.90
16229;DHT22;8222;51.462;12.630;2022-10-23T13:48:41;22.70;99.90
16229;DHT22;8222;51.462;12.630;2022-10-23T13:51:13;22.60;99.90
16229;DHT22;8222;51.462;12.630;2022-10-23T13:53:39;22.60;99.90
16229;DHT22;8222;51.462;12.630;2022-10-23T13:56:05;22.50;99.90
16229;DHT22;8222;51.462;12.630;2022-10-23T13:58:31;22.30;99.90
16229;DHT22;8222;51.462;12.630;2022-10-23T14:00:57;22.30;99.90
16229;DHT22;8222;51.462;12.630;2022-10-23T14:03:23;22.30;99.90
16229;DHT22;8222;51.462;12.630;2022-10-23T14:05:52;22.20;99.90
16229;DHT22;8222;51.462;12.630;2022-10-23T14:08:18;22.10;99.90
16229;DHT22;8222;51.462;12.630;2022-10-23T14:10:44;22.00;99.90
16229;DHT22;8222;51.462;12.630;2022-10-23T14:13:10;22.00;99.90
16229;DHT22;8222;51.462;12.630;2022-10-23T14:15:36;21.90;99.90
16229;DHT22;8222;51.462;12.630;2022-10-23T14:18:02;21.70;99.90
16229;DHT22;8222;51.462;12.630;2022-10-23T14:20:28;21.80;99.90
16229;DHT22;8222;51.462;12.630;2022-10-23T14:22:53;21.80;99.90
16229;DHT22;8222;51.462;12.630;2022-10-23T14:25:19;21.80;99.90
16229;DHT22;8222;51.462;12.630;2022-10-23T14:27:45;21.70;99.90
16229;DHT22;8222;51.462;12.630;2022-10-23T14:30:11;21.60;99.90
16229;DHT22;8222;51.462;12.630;2022-10-23T14:32:36;21.60;99.90
16229;DHT22;8222;51.462;12.630;2022-10-23T14:35:02;21.50;99.90
16229;DHT22;8222;51.462;12.630;2022-10-23T14:37:32;21.60;99.90
16229;DHT22;8222;51.462;12.630;2022-10-23T14:39:58;21.40;99.90
16229;DHT22;8222;51.462;12.630;2022-10-23T14:42:24;21.30;99.90
16229;DHT22;8222;51.462;12.630;2022-10-23T14:44:50;21.20;99.90
16229;DHT22;8222;51.462;12.630;2022-10-23T14:47:16;21.00;99.90
16229;DHT22;8222;51.462;12.630;2022-10-23T14:49:47;21.00;99.90
16229;DHT22;8222;51.462;12.630;2022-10-23T14:52:14;20.90;99.90
16229;DHT22;8222;51.462;12.630;2022-10-23T14:54:40;20.90;99.90
16229;DHT22;8222;51.462;12.630;2022-10-23T14:57:06;20.80;99.90
16229;DHT22;8222;51.462;12.630;2022-10-23T14:59:31;20.80;99.90
16229;DHT22;8222;51.462;12.630;2022-10-23T15:01:57;20.70;99.90
16229;DHT22;8222;51.462;12.630;2022-10-23T15:04:23;20.60;99.90
16229;DHT22;8222;51.462;12.630;2022-10-23T15:06:48;20.50;99.90
16229;DHT22;8222;51.462;12.630;2022-10-23T15:09:14;20.60;99.90
16229;DHT22;8222;51.462;12.630;2022-10-23T15:11:40;20.60;99.90
16229;DHT22;8222;51.462;12.630;2022-10-23T15:14:05;20.50;99.90
16229;DHT22;8222;51.462;12.630;2022-10-23T15:16:32;20.40;99.90
16229;DHT22;8222;51.462;12.630;2022-10-23T15:19:08;20.40;99.90
16229;DHT22;8222;51.462;12.630;2022-10-23T15:21:34;20.40;99.90
16229;DHT22;8222;51.462;12.630;2022-10-23T15:24:00;20.40;99.90
16229;DHT22;8222;51.462;12.630;2022-10-23T15:26:26;20.30;99.90
16229;DHT22;8222;51.462;12.630;2022-10-23T15:28:53;20.30;99.90
16229;DHT22;8222;51.462;12.630;2022-10-23T15:33:57;20.30;99.90
16229;DHT22;8222;51.462;12.630;2022-10-23T15:36:25;20.20;99.90
16229;DHT22;8222;51.462;12.630;2022-10-23T15:38:51;20.20;99.90
16229;DHT22;8222;51.462;12.630;2022-10-23T15:41:21;20.20;99.90
16229;DHT22;8222;51.462;12.630;2022-10-23T15:43:47;20.20;99.90
16229;DHT22;8222;51.462;12.630;2022-10-23T15:46:13;20.10;99.90
16229;DHT22;8222;51.462;12.630;2022-10-23T15:48:39;20.20;99.90
16229;DHT22;8222;51.462;12.630;2022-10-23T15:51:04;20.10;99.90
16229;DHT22;8222;51.462;12.630;2022-10-23T15:53:32;20.10;99.90
16229;DHT22;8222;51.462;12.630;2022-10-23T15:56:00;20.00;99.90
16229;DHT22;8222;51.462;12.630;2022-10-23T15:58:26;19.80;99.90
16229;DHT22;8222;51.462;12.630;2022-10-23T16:00:51;19.80;99.90
16229;DHT22;8222;51.462;12.630;2022-10-23T16:03:17;19.80;99.90
16229;DHT22;8222;51.462;12.630;2022-10-23T16:05:43;19.70;99.90
16229;DHT22;8222;51.462;12.630;2022-10-23T16:08:10;19.60;99.90
16229;DHT22;8222;51.462;12.630;2022-10-23T16:10:41;19.60;99.90
16229;DHT22;8222;51.462;12.630;2022-10-23T16:13:07;19.60;99.90
16229;DHT22;8222;51.462;12.630;2022-10-23T16:15:35;19.60;99.90
16229;DHT22;8222;51.462;12.630;2022-10-23T16:18:01;19.50;99.90
16229;DHT22;8222;51.462;12.630;2022-10-23T16:20:26;19.50;99.90
16229;DHT22;8222;51.462;12.630;2022-10-23T16:22:52;19.40;99.90
16229;DHT22;8222;51.462;12.630;2022-10-23T16:25:18;19.40;99.90
16229;DHT22;8222;51.462;12.630;2022-10-23T16:27:44;19.30;99.90
16229;DHT22;8222;51.462;12.630;2022-10-23T16:30:10;19.30;99.90
16229;DHT22;8222;51.462;12.630;2022-10-23T16:32:39;19.30;99.90
16229;DHT22;8222;51.462;12.630;2022-10-23T16:35:05;19.20;99.90
16229;DHT22;8222;51.462;12.630;2022-10-23T16:37:30;19.20;99.90
16229;DHT22;8222;51.462;12.630;2022-10-23T16:39:58;19.10;99.90
16229;DHT22;8222;51.462;12.630;2022-10-23T16:42:24;19.10;99.90
16229;DHT22;8222;51.462;12.630;2022-10-23T16:45:12;18.90;99.90
16229;DHT22;8222;51.462;12.630;2022-10-23T16:47:37;19.00;99.90
16229;DHT22;8222;51.462;12.630;2022-10-23T16:50:03;18.90;99.90
16229;DHT22;8222;51.462;12.630;2022-10-23T16:52:29;18.80;99.90
16229;DHT22;8222;51.462;12.630;2022-10-23T16:54:55;18.80;99.90
16229;DHT22;8222;51.462;12.630;2022-10-23T16:57:21;18.80;99.90
16229;DHT22;8222;51.462;12.630;2022-10-23T16:59:46;18.70;99.90
16229;DHT22;8222;51.462;12.630;2022-10-23T17:02:12;18.70;99.90
16229;DHT22;8222;51.462;12.630;2022-10-23T17:04:39;18.60;99.90
16229;DHT22;8222;51.462;12.630;2022-10-23T17:07:05;18.60;99.90
16229;DHT22;8222;51.462;12.630;2022-10-23T17:09:33;18.50;99.90
16229;DHT22;8222;51.462;12.630;2022-10-23T17:12:00;18.40;99.90
16229;DHT22;8222;51.462;12.630;2022-10-23T17:14:26;18.40;99.90
16229;DHT22;8222;51.462;12.630;2022-10-23T17:16:57;18.50;99.90
16229;DHT22;8222;51.462;12.630;2022-10-23T17:19:24;18.30;99.90
16229;DHT22;8222;51.462;12.630;2022-10-23T17:21:51;18.20;99.90